Time;durP1;ratioP1;P1;durP2;ratioP2;P2;SDS_P1;SDS_P2;PMS_P1;PMS_P2;Temp;Humidity;BMP_temperature;BMP_pressure;BME280_temperature;BME280_humidity;BME280_pressure;Samples;Min_cycle;Max_cycle;Signal;HPM_P1;HPM_P2
2021/01/13 00:00:08;;;;;;;5.43;4.43;;;0.80;99.90;;;;;;2098839;28;20291;-57
2021/01/13 00:01:08;;;;;;;5.65;4.63;;;0.90;99.90;;;;;;2098277;28;20207;-59
2021/01/13 00:02:10;;;;;;;7.77;5.67;;;0.90;99.90;;;;;;2098900;28;20183;-60
2021/01/13 00:03:11;;;;;;;8.15;5.85;;;0.90;99.90;;;;;;2098751;28;20182;-60
2021/01/13 00:04:12;;;;;;;7.33;5.30;;;0.90;99.90;;;;;;2099041;28;20183;-60
2021/01/13 00:05:15;;;;;;;6.00;4.95;;;0.90;99.90;;;;;;2098815;28;20182;-59
2021/01/13 00:06:16;;;;;;;5.95;4.38;;;0.80;99.90;;;;;;2098717;28;20200;-60
2021/01/13 00:07:17;;;;;;;5.67;4.43;;;0.90;99.90;;;;;;2098838;28;20203;-60
2021/01/13 00:08:17;;;;;;;6.73;5.47;;;0.90;99.90;;;;;;2098884;28;20180;-58
2021/01/13 00:09:18;;;;;;;6.63;5.40;;;0.80;99.90;;;;;;2098746;28;20179;-59
2021/01/13 00:10:20;;;;;;;7.70;5.40;;;0.90;99.90;;;;;;2098819;28;20198;-56
2021/01/13 00:11:20;;;;;;;8.32;5.95;;;0.80;99.90;;;;;;2098550;28;20662;-59
2021/01/13 00:12:21;;;;;;;9.53;6.07;;;0.80;99.90;;;;;;2098676;28;20183;-57
2021/01/13 00:13:22;;;;;;;7.80;5.97;;;0.80;99.90;;;;;;2098825;28;20254;-58
2021/01/13 00:14:24;;;;;;;5.77;5.17;;;0.80;99.90;;;;;;2098658;28;20574;-60
2021/01/13 00:15:24;;;;;;;9.88;6.60;;;0.80;99.90;;;;;;2098857;28;20232;-59
2021/01/13 00:16:25;;;;;;;8.40;6.37;;;0.90;99.90;;;;;;2098709;28;20679;-59
2021/01/13 00:17:26;;;;;;;10.73;7.33;;;0.80;99.90;;;;;;2098631;28;20792;-59
2021/01/13 00:18:26;;;;;;;8.60;7.07;;;0.80;99.90;;;;;;2098661;28;20209;-58
2021/01/13 00:19:27;;;;;;;10.97;6.60;;;0.80;99.90;;;;;;2098774;28;20170;-58
2021/01/13 00:20:28;;;;;;;8.57;6.67;;;0.80;99.90;;;;;;2098652;28;20180;-58
2021/01/13 00:21:29;;;;;;;9.07;7.13;;;0.70;99.90;;;;;;2098552;28;20180;-60
2021/01/13 00:22:29;;;;;;;6.97;6.00;;;0.70;99.90;;;;;;2098484;28;20628;-58
2021/01/13 00:23:30;;;;;;;9.50;6.27;;;0.70;99.90;;;;;;2098779;28;20800;-58
2021/01/13 00:24:31;;;;;;;9.03;6.67;;;0.70;99.90;;;;;;2098557;28;20186;-58
2021/01/13 00:25:33;;;;;;;7.63;6.25;;;0.70;99.90;;;;;;2098693;28;20550;-59
2021/01/13 00:26:33;;;;;;;9.93;6.80;;;0.70;99.90;;;;;;2098508;28;20555;-57
2021/01/13 00:27:34;;;;;;;7.67;6.20;;;0.70;99.90;;;;;;2098763;28;20171;-59
2021/01/13 00:28:35;;;;;;;9.33;6.70;;;0.70;99.90;;;;;;2098443;28;20571;-59
2021/01/13 00:29:36;;;;;;;6.73;5.30;;;0.60;99.90;;;;;;2098635;28;20180;-60
2021/01/13 00:30:36;;;;;;;8.33;5.77;;;0.70;99.90;;;;;;2098482;28;20213;-59
2021/01/13 00:31:37;;;;;;;7.63;6.03;;;0.70;99.90;;;;;;2098546;28;20182;-59
2021/01/13 00:32:38;;;;;;;9.00;6.20;;;0.70;99.90;;;;;;2098473;28;20175;-59
2021/01/13 00:33:39;;;;;;;7.90;5.57;;;0.70;99.90;;;;;;2098466;28;20174;-59
2021/01/13 00:34:39;;;;;;;4.93;4.43;;;0.70;99.90;;;;;;2098422;28;20199;-59
2021/01/13 00:35:40;;;;;;;7.17;5.67;;;0.70;99.90;;;;;;2098701;28;20234;-58
2021/01/13 00:36:41;;;;;;;6.40;5.50;;;0.70;99.90;;;;;;2098553;28;20556;-59
2021/01/13 00:37:42;;;;;;;8.23;6.00;;;0.70;99.90;;;;;;2098752;28;20179;-59
2021/01/13 00:38:43;;;;;;;7.17;5.77;;;0.70;99.90;;;;;;2098306;28;20187;-58
2021/01/13 00:39:44;;;;;;;7.23;5.90;;;0.70;99.90;;;;;;2097740;28;20180;-59
2021/01/13 00:40:44;;;;;;;8.00;5.83;;;0.70;99.90;;;;;;2098453;28;20233;-59
2021/01/13 00:41:45;;;;;;;7.40;5.60;;;0.70;99.90;;;;;;2098403;28;20190;-59
2021/01/13 00:42:48;;;;;;;6.47;5.20;;;0.70;99.90;;;;;;2098559;28;20174;-59
2021/01/13 00:43:51;;;;;;;8.30;5.20;;;0.70;99.90;;;;;;2098540;28;20261;-59
2021/01/13 00:44:52;;;;;;;5.85;4.35;;;0.70;99.90;;;;;;2098245;28;20203;-58
2021/01/13 00:45:53;;;;;;;4.70;4.20;;;0.80;99.90;;;;;;2098641;28;20175;-60
2021/01/13 00:46:53;;;;;;;4.20;3.73;;;0.70;99.90;;;;;;2098489;28;20186;-59
2021/01/13 00:47:54;;;;;;;5.63;4.27;;;0.70;99.90;;;;;;2098571;28;20174;-58
2021/01/13 00:48:55;;;;;;;4.10;3.70;;;0.70;99.90;;;;;;2098550;28;20190;-60
2021/01/13 00:49:55;;;;;;;5.53;4.47;;;0.70;99.90;;;;;;2098294;28;20210;-59
2021/01/13 00:50:56;;;;;;;5.87;4.17;;;0.70;99.90;;;;;;2098259;28;20265;-59
2021/01/13 00:51:57;;;;;;;5.40;3.93;;;0.60;99.90;;;;;;2098607;28;20238;-59
2021/01/13 00:52:57;;;;;;;5.50;4.00;;;0.70;99.90;;;;;;2098564;28;20182;-59
2021/01/13 00:53:58;;;;;;;4.33;3.80;;;0.70;99.90;;;;;;2098426;28;20590;-59
2021/01/13 00:54:59;;;;;;;4.40;4.00;;;0.70;99.90;;;;;;2098390;28;20205;-58
2021/01/13 00:55:59;;;;;;;5.23;3.80;;;0.60;99.90;;;;;;2098311;28;20190;-59
2021/01/13 00:57:00;;;;;;;5.73;4.00;;;0.60;99.90;;;;;;2098428;28;20178;-59
2021/01/13 00:58:01;;;;;;;5.50;3.63;;;0.60;99.90;;;;;;2098435;28;20174;-59
2021/01/13 00:59:01;;;;;;;3.80;3.40;;;0.50;99.90;;;;;;2098507;28;20279;-59
2021/01/13 01:00:04;;;;;;;6.83;4.23;;;0.50;99.90;;;;;;2098434;28;20198;-60
2021/01/13 01:01:05;;;;;;;4.43;3.42;;;0.50;99.90;;;;;;2105924;28;20228;-59
2021/01/13 01:02:06;;;;;;;3.93;3.30;;;0.50;99.90;;;;;;2106148;28;20185;-57
2021/01/13 01:03:06;;;;;;;4.03;3.60;;;0.50;99.90;;;;;;2098461;28;20178;-58
2021/01/13 01:04:09;;;;;;;4.70;3.50;;;0.50;99.90;;;;;;2098368;28;20551;-59
2021/01/13 01:05:10;;;;;;;5.10;3.35;;;0.40;99.90;;;;;;2098381;28;20543;-55
2021/01/13 01:06:14;;;;;;;5.53;3.60;;;0.40;99.90;;;;;;2098176;28;20191;-59
2021/01/13 01:07:14;;;;;;;4.55;3.78;;;0.40;99.90;;;;;;2098451;28;20181;-59
2021/01/13 01:08:16;;;;;;;5.07;3.67;;;0.50;99.90;;;;;;2098244;28;20621;-60
2021/01/13 01:09:16;;;;;;;4.70;4.05;;;0.40;99.90;;;;;;2098371;28;20182;-58
2021/01/13 01:10:29;;;;;;;4.37;3.50;;;0.40;99.90;;;;;;2098195;28;20563;-59
2021/01/13 01:11:33;;;;;;;5.32;4.15;;;0.40;99.90;;;;;;2097938;28;20678;-59
2021/01/13 01:12:33;;;;;;;4.78;3.70;;;0.40;99.90;;;;;;2098180;28;20178;-58
2021/01/13 01:13:35;;;;;;;8.17;4.07;;;0.40;99.90;;;;;;2098340;28;20182;-58
2021/01/13 01:14:36;;;;;;;5.53;4.15;;;0.40;99.90;;;;;;2098158;28;20281;-58
2021/01/13 01:15:36;;;;;;;5.90;4.17;;;0.40;99.90;;;;;;2098404;28;20566;-57
2021/01/13 01:16:43;;;;;;;5.30;4.33;;;0.40;99.90;;;;;;2097972;28;20173;-59
2021/01/13 01:17:44;;;;;;;5.97;3.80;;;0.40;99.90;;;;;;2098416;28;20178;-57
2021/01/13 01:18:44;;;;;;;5.53;3.83;;;0.40;99.90;;;;;;2098210;28;20265;-58
2021/01/13 01:19:48;;;;;;;6.87;4.40;;;0.30;99.90;;;;;;2098280;28;20256;-59
2021/01/13 01:20:49;;;;;;;6.88;4.22;;;0.30;99.90;;;;;;2098041;28;20209;-60
2021/01/13 01:21:49;;;;;;;6.40;4.27;;;0.30;99.90;;;;;;2098224;28;20187;-59
2021/01/13 01:22:59;;;;;;;7.63;4.30;;;0.30;99.90;;;;;;2098185;28;20518;-59
2021/01/13 01:24:00;;;;;;;8.75;4.43;;;0.30;99.90;;;;;;2093269;28;20557;-58
2021/01/13 01:25:00;;;;;;;5.63;4.33;;;0.30;99.90;;;;;;2089888;28;20200;-58
2021/01/13 01:26:06;;;;;;;5.47;4.33;;;0.30;99.90;;;;;;2090024;28;20207;-59
2021/01/13 01:27:06;;;;;;;6.25;4.65;;;0.30;99.90;;;;;;2089905;28;20163;-59
2021/01/13 01:28:07;;;;;;;6.20;4.63;;;0.30;99.90;;;;;;2089960;28;20194;-59
2021/01/13 01:29:07;;;;;;;5.67;4.30;;;0.30;99.90;;;;;;2089950;28;20267;-58
2021/01/13 01:30:09;;;;;;;5.93;4.63;;;0.30;99.90;;;;;;2089882;28;20297;-58
2021/01/13 01:31:10;;;;;;;6.82;4.97;;;0.30;99.90;;;;;;2088832;28;20667;-58
2021/01/13 01:32:10;;;;;;;7.40;4.67;;;0.30;99.90;;;;;;2089279;28;20240;-58
2021/01/13 01:33:11;;;;;;;5.77;4.83;;;0.30;99.90;;;;;;2089755;28;20274;-59
2021/01/13 01:34:12;;;;;;;5.77;4.37;;;0.30;99.90;;;;;;2089976;28;20262;-58
2021/01/13 01:35:13;;;;;;;6.10;4.67;;;0.30;99.90;;;;;;2089672;28;20210;-58
2021/01/13 01:36:15;;;;;;;5.53;4.72;;;0.30;99.90;;;;;;2089881;28;20273;-59
2021/01/13 01:37:16;;;;;;;6.10;4.72;;;0.30;99.90;;;;;;2089800;28;20234;-59
2021/01/13 01:38:17;;;;;;;7.67;5.13;;;0.30;99.90;;;;;;2089732;28;20605;-59
2021/01/13 01:39:18;;;;;;;6.32;5.00;;;0.30;99.90;;;;;;2089690;28;20210;-58
2021/01/13 01:40:20;;;;;;;8.23;4.77;;;0.30;99.90;;;;;;2089813;28;20186;-57
2021/01/13 01:41:23;;;;;;;5.30;4.20;;;0.40;99.90;;;;;;2089457;28;20187;-58
2021/01/13 01:42:24;;;;;;;6.70;4.60;;;0.40;99.90;;;;;;2089706;28;20723;-58
2021/01/13 01:43:24;;;;;;;7.37;5.30;;;0.40;99.90;;;;;;2089636;28;20210;-59
2021/01/13 01:44:25;;;;;;;5.80;4.20;;;0.40;99.90;;;;;;2089675;28;20646;-58
2021/01/13 01:45:29;;;;;;;7.13;3.67;;;0.30;99.90;;;;;;2089757;28;20168;-59
2021/01/13 01:46:30;;;;;;;5.45;4.10;;;0.20;99.90;;;;;;2089715;28;20190;-58
2021/01/13 01:48:27;;;;;;;5.88;4.20;;;0.20;99.90;;;;;;2089671;28;20191;-58
2021/01/13 01:49:28;;;;;;;5.68;4.45;;;0.20;99.90;;;;;;2089523;28;20662;-59
2021/01/13 01:50:34;;;;;;;7.40;4.33;;;0.20;99.90;;;;;;2088751;28;20210;-59
2021/01/13 01:52:16;;;;;;;6.95;4.30;;;0.20;99.90;;;;;;2088794;28;20418;-58
2021/01/13 01:53:49;;;;;;;4.65;3.78;;;0.10;99.90;;;;;;2088961;28;20188;-57
2021/01/13 01:54:55;;;;;;;6.05;4.28;;;0.10;99.90;;;;;;2089489;28;20681;-57
2021/01/13 01:56:08;;;;;;;4.75;4.05;;;0.00;99.90;;;;;;2089577;28;20251;-58
2021/01/13 01:57:16;;;;;;;5.35;3.88;;;0.10;99.90;;;;;;2089714;28;20165;-57
2021/01/13 01:58:31;;;;;;;4.95;3.92;;;0.00;99.90;;;;;;2089590;28;20522;-57
2021/01/13 02:00:03;;;;;;;5.25;4.47;;;-0.10;99.90;;;;;;2089631;28;20179;-58
2021/01/13 02:01:05;;;;;;;7.05;4.13;;;-0.10;99.90;;;;;;2087443;28;20193;-58
2021/01/13 02:02:09;;;;;;;5.80;4.35;;;-0.20;99.90;;;;;;2089471;28;20554;-58
2021/01/13 02:03:13;;;;;;;7.15;4.75;;;-0.20;99.90;;;;;;2089348;28;20194;-58
2021/01/13 02:04:30;;;;;;;6.50;4.53;;;-0.20;99.90;;;;;;2088919;28;20209;-58
2021/01/13 02:05:31;;;;;;;6.00;4.20;;;-0.30;99.90;;;;;;2089482;28;20182;-58
2021/01/13 02:06:35;;;;;;;6.35;4.32;;;-0.30;99.90;;;;;;2088915;28;20182;-57
2021/01/13 02:07:36;;;;;;;6.15;4.13;;;-0.40;99.90;;;;;;2081053;28;20196;-58
2021/01/13 02:08:41;;;;;;;5.97;4.47;;;-0.40;99.90;;;;;;2089066;28;20182;-59
2021/01/13 02:09:42;;;;;;;6.45;4.20;;;-0.40;99.90;;;;;;2089688;28;20861;-59
2021/01/13 02:10:43;;;;;;;8.20;4.43;;;-0.40;99.90;;;;;;2089338;28;20229;-60
2021/01/13 02:11:53;;;;;;;4.15;3.55;;;-0.50;99.90;;;;;;2088749;28;20183;-59
2021/01/13 02:13:07;;;;;;;5.97;3.30;;;-0.50;99.90;;;;;;2089074;28;20241;-59
2021/01/13 02:14:13;;;;;;;5.20;3.80;;;-0.50;99.90;;;;;;2089632;28;20163;-59
2021/01/13 02:15:15;;;;;;;5.30;3.38;;;-0.60;99.90;;;;;;2089384;28;20191;-58
2021/01/13 02:16:20;;;;;;;5.53;3.58;;;-0.60;99.90;;;;;;2089407;28;20209;-60
2021/01/13 02:17:32;;;;;;;5.55;3.85;;;-0.60;99.90;;;;;;2089557;28;20186;-59
2021/01/13 02:18:36;;;;;;;6.80;3.90;;;-0.60;99.90;;;;;;2089495;28;20194;-59
2021/01/13 02:19:48;;;;;;;7.18;4.13;;;-0.60;99.90;;;;;;2089530;28;20191;-59
2021/01/13 02:20:56;;;;;;;6.40;4.00;;;-0.70;99.90;;;;;;2089278;28;20189;-60
2021/01/13 02:22:03;;;;;;;5.32;3.95;;;-0.60;99.90;;;;;;2088724;28;20186;-59
2021/01/13 02:23:08;;;;;;;6.95;4.18;;;-0.70;99.90;;;;;;2088897;28;20647;-58
2021/01/13 02:24:08;;;;;;;6.25;4.00;;;-0.70;99.90;;;;;;2089514;28;20199;-59
2021/01/13 02:25:14;;;;;;;6.37;4.73;;;-0.70;99.90;;;;;;2089262;28;20573;-59
2021/01/13 02:27:17;;;;;;;6.85;4.45;;;-0.70;99.90;;;;;;2089419;28;20186;-59
2021/01/13 02:28:23;;;;;;;5.93;4.15;;;-0.70;99.90;;;;;;2080095;28;20200;-58
2021/01/13 02:29:45;;;;;;;5.88;4.03;;;-0.70;99.90;;;;;;2079955;28;20249;-59
2021/01/13 02:31:03;;;;;;;8.40;4.78;;;-0.70;99.90;;;;;;2088731;28;20202;-58
2021/01/13 02:32:23;;;;;;;7.00;4.63;;;-0.70;99.90;;;;;;2088729;28;20694;-59
2021/01/13 02:33:41;;;;;;;7.22;4.53;;;-0.60;99.90;;;;;;2088664;28;20206;-58
2021/01/13 02:35:09;;;;;;;5.50;4.57;;;-0.70;99.90;;;;;;2082693;28;20206;-58
2021/01/13 02:36:16;;;;;;;6.32;4.93;;;-0.60;99.90;;;;;;2084303;28;20177;-58
2021/01/13 02:37:41;;;;;;;8.05;5.55;;;-0.60;99.90;;;;;;2088728;28;20238;-59
2021/01/13 02:38:42;;;;;;;7.50;4.60;;;-0.60;99.90;;;;;;2089313;28;20192;-59
2021/01/13 02:39:45;;;;;;;5.82;4.10;;;-0.60;99.90;;;;;;2088699;28;20212;-59
2021/01/13 02:40:49;;;;;;;8.27;4.45;;;-0.60;99.90;;;;;;2088806;28;20194;-57
2021/01/13 02:41:57;;;;;;;5.75;3.95;;;-0.60;99.90;;;;;;2089351;28;20175;-57
2021/01/13 02:43:10;;;;;;;7.93;4.68;;;-0.60;99.90;;;;;;2089260;28;20187;-58
2021/01/13 02:44:12;;;;;;;7.10;4.28;;;-0.60;99.90;;;;;;2089258;28;20166;-58
2021/01/13 02:45:18;;;;;;;4.93;4.00;;;-0.60;99.90;;;;;;2088571;28;20270;-57
2021/01/13 02:46:55;;;;;;;6.65;4.10;;;-0.60;99.90;;;;;;2081017;28;20191;-59
2021/01/13 02:48:02;;;;;;;5.47;3.55;;;-0.60;99.90;;;;;;2089046;28;20182;-60
2021/01/13 02:49:08;;;;;;;6.30;3.97;;;-0.60;99.90;;;;;;2089223;28;20183;-60
2021/01/13 02:50:25;;;;;;;5.70;3.55;;;-0.70;99.90;;;;;;2089136;28;20643;-60
2021/01/13 02:51:30;;;;;;;7.25;3.90;;;-0.70;99.90;;;;;;2089106;28;20181;-58
2021/01/13 02:52:58;;;;;;;3.63;3.25;;;-0.80;99.90;;;;;;2089192;28;20183;-58
2021/01/13 02:54:18;;;;;;;9.05;3.97;;;-0.80;99.90;;;;;;2088376;28;20166;-58
2021/01/13 02:55:19;;;;;;;6.18;4.03;;;-0.80;99.90;;;;;;2088787;28;20198;-59
2021/01/13 02:56:42;;;;;;;5.77;4.43;;;-0.80;99.90;;;;;;2088440;28;20229;-58
2021/01/13 02:57:51;;;;;;;5.80;4.18;;;-0.80;99.90;;;;;;2088882;28;20199;-57
2021/01/13 02:59:06;;;;;;;6.40;4.60;;;-0.80;99.90;;;;;;2089159;28;20168;-59
2021/01/13 03:00:08;;;;;;;9.32;4.10;;;-0.80;99.90;;;;;;2089258;28;20546;-57
2021/01/13 03:01:09;;;;;;;8.95;4.80;;;-0.90;99.90;;;;;;2088965;28;20199;-58
2021/01/13 03:02:11;;;;;;;5.63;4.45;;;-0.80;99.90;;;;;;2088816;28;20259;-58
2021/01/13 03:03:14;;;;;;;6.53;4.28;;;-0.80;99.90;;;;;;2089069;28;20187;-57
2021/01/13 03:04:15;;;;;;;6.82;4.13;;;-0.80;99.90;;;;;;2088373;28;20199;-59
2021/01/13 03:05:17;;;;;;;6.47;4.00;;;-0.80;99.90;;;;;;2088483;28;20278;-58
2021/01/13 03:06:20;;;;;;;6.63;3.85;;;-0.80;99.90;;;;;;2089142;28;20778;-57
2021/01/13 03:07:26;;;;;;;6.97;4.10;;;-0.80;99.90;;;;;;2088579;28;20557;-57
2021/01/13 03:09:12;;;;;;;6.45;3.60;;;-0.80;99.90;;;;;;2088760;28;20182;-58
2021/01/13 03:10:17;;;;;;;6.13;3.85;;;-0.70;99.90;;;;;;2088391;28;20581;-60
2021/01/13 03:11:22;;;;;;;4.68;3.53;;;-0.80;99.90;;;;;;2088299;28;20202;-58
2021/01/13 03:12:26;;;;;;;8.55;4.18;;;-0.80;99.90;;;;;;2089156;28;20196;-58
2021/01/13 03:13:42;;;;;;;5.95;3.65;;;-0.90;99.90;;;;;;2089057;28;20637;-59
2021/01/13 03:14:50;;;;;;;5.28;3.85;;;-0.90;99.90;;;;;;2089168;28;20215;-59
2021/01/13 03:15:51;;;;;;;6.55;3.60;;;-0.90;99.90;;;;;;2089120;28;20171;-59
2021/01/13 03:17:51;;;;;;;6.93;3.90;;;-1.00;99.90;;;;;;2089194;28;20665;-59
2021/01/13 03:19:02;;;;;;;5.88;3.38;;;-1.00;99.90;;;;;;2089232;28;20177;-58
2021/01/13 03:20:15;;;;;;;4.68;3.35;;;-1.00;99.90;;;;;;2089341;28;20254;-59
2021/01/13 03:21:20;;;;;;;4.80;3.40;;;-1.00;99.90;;;;;;2088778;28;20763;-60
2021/01/13 03:22:29;;;;;;;5.40;3.90;;;-1.00;99.90;;;;;;2089310;28;20236;-59
2021/01/13 03:24:00;;;;;;;7.10;3.72;;;-1.00;99.90;;;;;;2089148;28;20186;-59
2021/01/13 03:25:05;;;;;;;5.55;3.55;;;-1.00;99.90;;;;;;2088452;28;20572;-58
2021/01/13 03:26:08;;;;;;;9.80;4.18;;;-1.00;99.90;;;;;;2088490;28;20791;-59
2021/01/13 03:27:10;;;;;;;6.72;3.72;;;-1.00;99.90;;;;;;2089128;28;20565;-59
2021/01/13 03:28:14;;;;;;;5.38;3.88;;;-1.00;99.90;;;;;;2088441;28;20744;-56
2021/01/13 03:29:22;;;;;;;7.28;4.07;;;-1.00;99.90;;;;;;2091361;28;20196;-60
2021/01/13 03:30:25;;;;;;;5.50;3.60;;;-1.10;99.90;;;;;;2096686;28;20228;-59
2021/01/13 03:31:30;;;;;;;6.18;3.50;;;-1.20;99.90;;;;;;2096245;28;20780;-59
2021/01/13 03:33:01;;;;;;;4.93;3.28;;;-1.20;99.90;;;;;;2096843;28;20250;-60
2021/01/13 03:34:27;;;;;;;7.43;3.75;;;-1.30;99.90;;;;;;2097320;28;20679;-59
2021/01/13 03:35:54;;;;;;;4.88;2.97;;;-1.40;99.90;;;;;;2096810;28;20221;-59
2021/01/13 03:37:16;;;;;;;5.82;3.17;;;-1.50;99.90;;;;;;2097044;28;20176;-59
2021/01/13 03:38:19;;;;;;;4.63;2.90;;;-1.50;99.90;;;;;;2097212;28;20188;-59
2021/01/13 03:39:22;;;;;;;4.32;3.50;;;-1.50;99.90;;;;;;2097360;28;20176;-60
2021/01/13 03:40:27;;;;;;;6.28;3.80;;;-1.50;99.90;;;;;;2097297;28;20264;-59
2021/01/13 03:41:54;;;;;;;5.60;2.75;;;-1.50;99.90;;;;;;2097160;28;20161;-59
2021/01/13 03:42:57;;;;;;;7.22;3.28;;;-1.50;99.90;;;;;;2097279;28;20189;-59
2021/01/13 03:44:08;;;;;;;4.97;3.55;;;-1.60;99.90;;;;;;2094776;28;20197;-57
2021/01/13 03:45:12;;;;;;;6.70;3.60;;;-1.60;99.90;;;;;;2097019;28;20200;-58
2021/01/13 03:46:13;;;;;;;7.45;3.38;;;-1.60;99.90;;;;;;2089210;28;20193;-59
2021/01/13 03:47:19;;;;;;;6.63;3.30;;;-1.70;99.90;;;;;;2088291;28;20667;-59
2021/01/13 03:48:47;;;;;;;6.43;3.88;;;-1.60;99.90;;;;;;2088769;28;20177;-59
2021/01/13 03:50:13;;;;;;;9.52;3.13;;;-1.60;99.90;;;;;;2089005;28;20628;-58
2021/01/13 03:51:25;;;;;;;4.90;2.92;;;-1.80;99.90;;;;;;2088724;28;20226;-59
2021/01/13 03:52:36;;;;;;;5.65;3.30;;;-1.80;99.90;;;;;;2088850;28;20633;-60
2021/01/13 03:53:40;;;;;;;7.53;3.05;;;-1.90;99.90;;;;;;2088187;28;20836;-58
2021/01/13 03:54:44;;;;;;;5.97;3.47;;;-1.90;99.90;;;;;;2080496;28;20193;-58
2021/01/13 03:55:44;;;;;;;4.90;2.70;;;-2.00;99.90;;;;;;2088358;28;20609;-58
2021/01/13 03:56:59;;;;;;;6.80;2.87;;;-2.00;99.90;;;;;;2088995;28;20185;-59
2021/01/13 03:58:09;;;;;;;7.78;2.90;;;-2.00;99.90;;;;;;2088857;28;20192;-57
2021/01/13 03:59:19;;;;;;;8.60;3.10;;;-1.90;99.90;;;;;;2088849;28;20264;-59
2021/01/13 04:00:21;;;;;;;6.15;3.17;;;-1.90;99.90;;;;;;2088236;28;20189;-59
2021/01/13 04:01:22;;;;;;;6.10;3.28;;;-2.00;99.90;;;;;;2088237;28;20181;-57
2021/01/13 04:02:38;;;;;;;6.27;3.27;;;-2.00;99.90;;;;;;2088823;28;20176;-59
2021/01/13 04:03:55;;;;;;;4.10;2.75;;;-2.10;99.90;;;;;;2088328;28;20260;-58
2021/01/13 04:05:27;;;;;;;6.50;3.15;;;-2.10;99.90;;;;;;2088417;28;20237;-59
2021/01/13 04:06:28;;;;;;;6.05;2.83;;;-2.10;99.90;;;;;;2088311;28;20173;-59
2021/01/13 04:07:38;;;;;;;7.68;3.28;;;-2.00;99.90;;;;;;2088270;28;20246;-59
2021/01/13 04:08:44;;;;;;;7.70;3.05;;;-2.10;99.90;;;;;;2088369;28;20161;-58
2021/01/13 04:09:45;;;;;;;7.13;3.10;;;-2.10;99.90;;;;;;2088172;28;20177;-59
2021/01/13 04:10:46;;;;;;;4.63;2.75;;;-2.00;99.90;;;;;;2088723;28;20285;-59
2021/01/13 04:11:50;;;;;;;4.07;2.90;;;-2.00;99.90;;;;;;2088988;28;20683;-58
2021/01/13 04:12:50;;;;;;;4.93;2.30;;;-2.00;99.90;;;;;;2088851;28;20189;-58
2021/01/13 04:13:54;;;;;;;9.53;3.23;;;-2.00;99.90;;;;;;2089729;28;20644;-59
2021/01/13 04:14:57;;;;;;;6.20;2.90;;;-2.00;99.90;;;;;;2089622;28;20198;-58
2021/01/13 04:16:00;;;;;;;7.32;2.70;;;-2.00;99.90;;;;;;2089936;28;20260;-59
2021/01/13 04:17:02;;;;;;;7.70;2.90;;;-2.00;99.90;;;;;;2090268;28;20667;-59
2021/01/13 04:18:06;;;;;;;4.75;2.53;;;-2.00;99.90;;;;;;2090390;28;20813;-58
2021/01/13 04:19:07;;;;;;;4.18;2.63;;;-2.00;99.90;;;;;;2090401;28;20170;-58
2021/01/13 04:20:09;;;;;;;3.20;2.70;;;-2.00;99.90;;;;;;2090354;28;20262;-58
2021/01/13 04:21:14;;;;;;;5.22;2.60;;;-1.90;99.90;;;;;;2090103;28;20180;-60
2021/01/13 04:22:18;;;;;;;6.05;3.10;;;-1.90;99.90;;;;;;2090529;28;20178;-57
2021/01/13 04:23:19;;;;;;;4.72;2.45;;;-1.80;99.90;;;;;;2090480;28;20232;-57
2021/01/13 04:24:20;;;;;;;4.93;2.85;;;-1.80;99.90;;;;;;2090413;28;20214;-58
2021/01/13 04:25:21;;;;;;;5.93;2.40;;;-1.80;99.90;;;;;;2090148;28;20645;-58
2021/01/13 04:26:23;;;;;;;3.40;2.20;;;-1.80;99.90;;;;;;2090292;28;20184;-60
2021/01/13 04:27:24;;;;;;;4.75;2.35;;;-1.70;99.90;;;;;;2090384;28;20169;-58
2021/01/13 04:28:26;;;;;;;6.65;2.75;;;-1.70;99.90;;;;;;2090587;28;20197;-56
2021/01/13 04:29:27;;;;;;;2.70;2.33;;;-1.70;99.90;;;;;;2090277;28;20208;-57
2021/01/13 04:30:29;;;;;;;4.65;2.63;;;-1.60;99.90;;;;;;2090279;28;20202;-57
2021/01/13 04:31:30;;;;;;;4.28;2.10;;;-1.60;99.90;;;;;;2089870;28;20195;-60
2021/01/13 04:32:31;;;;;;;5.55;2.67;;;-1.60;99.90;;;;;;2090407;28;20262;-59
2021/01/13 04:33:33;;;;;;;10.02;2.67;;;-1.70;99.90;;;;;;2090308;28;20202;-59
2021/01/13 04:34:33;;;;;;;5.88;2.50;;;-1.70;99.90;;;;;;2090386;28;20261;-59
2021/01/13 04:35:35;;;;;;;8.83;3.20;;;-1.70;99.90;;;;;;2090265;28;20181;-58
2021/01/13 04:36:38;;;;;;;4.65;3.30;;;-1.70;99.90;;;;;;2090269;28;20191;-59
2021/01/13 04:37:40;;;;;;;5.88;3.00;;;-1.80;99.90;;;;;;2089578;28;20186;-58
2021/01/13 04:38:42;;;;;;;6.07;3.53;;;-1.90;99.90;;;;;;2089785;28;20170;-59
2021/01/13 04:39:43;;;;;;;7.22;3.72;;;-1.90;99.90;;;;;;2089677;28;20189;-60
2021/01/13 04:40:50;;;;;;;12.00;3.80;;;-1.90;99.90;;;;;;2090330;28;20645;-59
2021/01/13 04:42:07;;;;;;;8.65;3.92;;;-2.00;99.90;;;;;;2090176;28;20177;-60
2021/01/13 04:43:12;;;;;;;6.13;3.72;;;-2.00;99.90;;;;;;2090383;28;20227;-56
2021/01/13 04:44:20;;;;;;;11.25;4.70;;;-2.00;99.90;;;;;;2090272;28;20272;-58
2021/01/13 04:45:40;;;;;;;7.22;4.20;;;-2.00;99.90;;;;;;2090262;28;20167;-58
2021/01/13 04:46:41;;;;;;;9.13;4.40;;;-2.10;99.90;;;;;;2090211;28;20187;-59
2021/01/13 04:47:50;;;;;;;8.55;4.25;;;-2.10;99.90;;;;;;2089547;28;20177;-58
2021/01/13 04:49:01;;;;;;;7.55;4.47;;;-2.10;99.90;;;;;;2089850;28;20190;-59
2021/01/13 04:50:03;;;;;;;7.38;4.47;;;-2.20;99.90;;;;;;2090000;28;20713;-60
2021/01/13 04:51:05;;;;;;;9.63;4.50;;;-2.20;99.90;;;;;;2089908;28;20197;-59
2021/01/13 04:52:17;;;;;;;9.93;5.15;;;-2.30;99.90;;;;;;2089552;28;20255;-59
2021/01/13 04:53:23;;;;;;;8.63;4.93;;;-2.30;99.90;;;;;;2089760;28;20179;-57
2021/01/13 04:54:26;;;;;;;6.95;4.65;;;-2.40;99.90;;;;;;2090094;28;20178;-60
2021/01/13 04:55:27;;;;;;;8.25;4.70;;;-2.50;99.90;;;;;;2089741;28;20259;-59
2021/01/13 04:56:38;;;;;;;7.55;4.57;;;-2.50;99.90;;;;;;2089503;28;20687;-59
2021/01/13 04:58:32;;;;;;;8.93;4.38;;;-2.60;99.90;;;;;;2090189;28;20639;-59
2021/01/13 05:00:07;;;;;;;7.30;4.25;;;-2.60;99.90;;;;;;2089368;28;20180;-60
2021/01/13 05:02:00;;;;;;;7.93;4.00;;;-2.70;99.90;;;;;;2089699;28;20655;-58
2021/01/13 05:03:06;;;;;;;8.65;3.60;;;-2.80;99.90;;;;;;2090196;28;20179;-58
2021/01/13 05:04:54;;;;;;;7.30;3.55;;;-2.80;99.90;;;;;;2090342;28;20220;-58
2021/01/13 05:06:32;;;;;;;8.98;3.47;;;-2.90;99.90;;;;;;2090364;28;20264;-59
2021/01/13 05:07:41;;;;;;;4.60;3.08;;;-2.90;99.90;;;;;;2080812;28;20676;-59
2021/01/13 05:08:55;;;;;;;10.48;3.70;;;-3.00;99.90;;;;;;2096200;28;20646;-58
2021/01/13 05:10:15;;;;;;;8.55;4.05;;;-3.00;99.90;;;;;;2089523;28;20166;-59
2021/01/13 05:11:19;;;;;;;8.68;4.07;;;-3.00;99.90;;;;;;2083543;28;20250;-59
2021/01/13 05:12:26;;;;;;;8.93;4.07;;;-3.10;99.90;;;;;;2089423;28;20187;-59
2021/01/13 05:13:34;;;;;;;10.18;4.15;;;-3.10;99.90;;;;;;2089490;28;20195;-57
2021/01/13 05:14:44;;;;;;;8.82;4.25;;;-3.10;99.90;;;;;;2090043;28;20212;-60
2021/01/13 05:15:55;;;;;;;7.63;4.05;;;-3.10;99.90;;;;;;2090146;28;20172;-58
2021/01/13 05:17:04;;;;;;;8.52;4.28;;;-3.10;99.90;;;;;;2090198;28;20230;-58
2021/01/13 05:18:09;;;;;;;6.43;4.10;;;-3.10;99.90;;;;;;2090160;28;20413;-58
2021/01/13 05:19:39;;;;;;;6.40;4.80;;;-3.20;99.90;;;;;;2089951;28;20701;-57
2021/01/13 05:20:53;;;;;;;20.15;7.00;;;-3.10;99.90;;;;;;2090079;28;20165;-59
2021/01/13 05:21:59;;;;;;;10.07;5.03;;;-3.10;99.90;;;;;;2089891;28;20243;-59
2021/01/13 05:23:02;;;;;;;13.48;7.22;;;-3.10;99.90;;;;;;2090032;28;20180;-58
2021/01/13 05:24:06;;;;;;;11.27;6.10;;;-3.10;99.90;;;;;;2089902;28;20184;-59
2021/01/13 05:25:08;;;;;;;13.20;6.80;;;-3.00;99.90;;;;;;2089382;28;20790;-59
2021/01/13 05:26:19;;;;;;;19.17;10.88;;;-3.00;99.90;;;;;;2089301;28;20656;-60
2021/01/13 05:27:44;;;;;;;12.25;9.38;;;-3.00;99.90;;;;;;2089915;28;20193;-58
2021/01/13 05:29:05;;;;;;;11.10;7.90;;;-2.90;99.90;;;;;;2089904;28;20176;-59
2021/01/13 05:30:09;;;;;;;10.93;7.65;;;-2.90;99.90;;;;;;2080225;28;20719;-59
2021/01/13 05:31:18;;;;;;;12.32;8.35;;;-2.80;99.90;;;;;;2088152;28;20195;-59
2021/01/13 05:32:20;;;;;;;9.65;6.97;;;-2.80;99.90;;;;;;2089108;28;20187;-58
2021/01/13 05:33:31;;;;;;;12.55;6.72;;;-2.80;99.90;;;;;;2089273;28;20184;-59
2021/01/13 05:34:36;;;;;;;12.60;6.80;;;-2.70;99.90;;;;;;2089294;28;20167;-57
2021/01/13 05:35:45;;;;;;;15.10;8.55;;;-2.80;99.90;;;;;;2089734;28;20204;-59
2021/01/13 05:37:25;;;;;;;11.43;7.70;;;-2.70;99.90;;;;;;2091946;28;20177;-59
2021/01/13 05:38:38;;;;;;;10.02;6.47;;;-2.70;99.90;;;;;;2097350;28;20175;-59
2021/01/13 05:39:39;;;;;;;11.68;7.18;;;-2.60;99.90;;;;;;2097545;28;20168;-59
2021/01/13 05:40:58;;;;;;;14.75;7.93;;;-2.60;99.90;;;;;;2097924;28;20187;-59
2021/01/13 05:42:02;;;;;;;14.98;8.43;;;-2.60;99.90;;;;;;2098070;28;20245;-59
2021/01/13 05:43:02;;;;;;;16.95;8.18;;;-2.60;99.90;;;;;;2097935;28;20190;-59
2021/01/13 05:44:04;;;;;;;15.83;8.33;;;-2.60;99.90;;;;;;2097478;28;20710;-58
2021/01/13 05:45:06;;;;;;;13.35;7.60;;;-2.60;99.90;;;;;;2097032;28;20473;-57
2021/01/13 05:46:11;;;;;;;13.60;7.60;;;-2.50;99.90;;;;;;2098035;28;20188;-58
2021/01/13 05:47:45;;;;;;;14.25;8.38;;;-2.50;99.90;;;;;;2097154;28;20702;-58
2021/01/13 05:48:51;;;;;;;11.63;7.32;;;-2.50;99.90;;;;;;2097657;28;20194;-59
2021/01/13 05:49:54;;;;;;;12.57;6.57;;;-2.50;99.90;;;;;;2097983;28;20184;-57
2021/01/13 05:50:55;;;;;;;11.27;6.47;;;-2.50;99.90;;;;;;2097637;28;20558;-58
2021/01/13 05:52:05;;;;;;;10.35;5.35;;;-2.50;99.90;;;;;;2097739;28;20643;-57